sensor_id;sensor_type;location;lat;lon;timestamp;temperature;humidity
20141;DHT22;10231;47.702;9.826;2022-12-05T00:01:34;2.50;99.90
20141;DHT22;10231;47.702;9.826;2022-12-05T00:04:03;2.50;99.90
20141;DHT22;10231;47.702;9.826;2022-12-05T00:06:29;2.50;99.90
20141;DHT22;10231;47.702;9.826;2022-12-05T00:08:56;2.40;99.90
20141;DHT22;10231;47.702;9.826;2022-12-05T00:11:24;2.40;99.90
20141;DHT22;10231;47.702;9.826;2022-12-05T00:13:52;2.40;99.90
20141;DHT22;10231;47.702;9.826;2022-12-05T00:16:20;2.50;99.90
20141;DHT22;10231;47.702;9.826;2022-12-05T00:18:46;2.50;99.90
20141;DHT22;10231;47.702;9.826;2022-12-05T00:21:20;2.50;99.90
20141;DHT22;10231;47.702;9.826;2022-12-05T00:23:46;2.40;99.90
20141;DHT22;10231;47.702;9.826;2022-12-05T00:26:12;2.40;99.90
20141;DHT22;10231;47.702;9.826;2022-12-05T00:28:38;2.40;99.90
20141;DHT22;10231;47.702;9.826;2022-12-05T00:31:13;2.50;99.90
20141;DHT22;10231;47.702;9.826;2022-12-05T00:33:39;2.50;99.90
20141;DHT22;10231;47.702;9.826;2022-12-05T00:36:11;2.50;99.90
20141;DHT22;10231;47.702;9.826;2022-12-05T00:38:37;2.50;99.90
20141;DHT22;10231;47.702;9.826;2022-12-05T00:41:09;2.50;99.90
20141;DHT22;10231;47.702;9.826;2022-12-05T00:43:35;2.50;99.90
20141;DHT22;10231;47.702;9.826;2022-12-05T00:46:02;2.40;99.90
20141;DHT22;10231;47.702;9.826;2022-12-05T00:48:28;2.40;99.90
20141;DHT22;10231;47.702;9.826;2022-12-05T00:51:00;2.40;99.90
20141;DHT22;10231;47.702;9.826;2022-12-05T00:53:26;2.40;99.90
20141;DHT22;10231;47.702;9.826;2022-12-05T00:55:51;2.40;99.90
20141;DHT22;10231;47.702;9.826;2022-12-05T00:58:17;2.40;99.90
20141;DHT22;10231;47.702;9.826;2022-12-05T01:00:43;2.30;99.90
20141;DHT22;10231;47.702;9.826;2022-12-05T01:03:08;2.40;99.90
20141;DHT22;10231;47.702;9.826;2022-12-05T01:05:34;2.40;99.90
20141;DHT22;10231;47.702;9.826;2022-12-05T01:07:59;2.40;99.90
20141;DHT22;10231;47.702;9.826;2022-12-05T01:10:25;2.40;99.90
20141;DHT22;10231;47.702;9.826;2022-12-05T01:12:50;2.40;99.90
20141;DHT22;10231;47.702;9.826;2022-12-05T01:15:16;2.40;99.90
20141;DHT22;10231;47.702;9.826;2022-12-05T01:17:42;2.30;99.90
20141;DHT22;10231;47.702;9.826;2022-12-05T01:20:07;2.30;99.90
20141;DHT22;10231;47.702;9.826;2022-12-05T01:22:33;2.30;99.90
20141;DHT22;10231;47.702;9.826;2022-12-05T01:24:59;2.30;99.90
20141;DHT22;10231;47.702;9.826;2022-12-05T01:27:24;2.30;99.90
20141;DHT22;10231;47.702;9.826;2022-12-05T01:29:50;2.30;99.90
20141;DHT22;10231;47.702;9.826;2022-12-05T01:32:15;2.30;99.90
20141;DHT22;10231;47.702;9.826;2022-12-05T01:34:41;2.30;99.90
20141;DHT22;10231;47.702;9.826;2022-12-05T01:37:06;2.30;99.90
20141;DHT22;10231;47.702;9.826;2022-12-05T01:39:32;2.40;99.90
20141;DHT22;10231;47.702;9.826;2022-12-05T01:41:58;2.40;99.90
20141;DHT22;10231;47.702;9.826;2022-12-05T01:46:50;2.60;99.90
20141;DHT22;10231;47.702;9.826;2022-12-05T01:51:51;2.60;99.90
20141;DHT22;10231;47.702;9.826;2022-12-05T01:54:17;2.50;99.90
20141;DHT22;10231;47.702;9.826;2022-12-05T01:56:48;2.50;99.90
20141;DHT22;10231;47.702;9.826;2022-12-05T01:59:16;2.50;99.90
20141;DHT22;10231;47.702;9.826;2022-12-05T02:01:43;2.50;99.90
20141;DHT22;10231;47.702;9.826;2022-12-05T02:04:09;2.50;99.90
20141;DHT22;10231;47.702;9.826;2022-12-05T02:06:34;2.50;99.90
20141;DHT22;10231;47.702;9.826;2022-12-05T02:09:00;2.50;99.90
20141;DHT22;10231;47.702;9.826;2022-12-05T02:11:28;2.40;99.90
20141;DHT22;10231;47.702;9.826;2022-12-05T02:30:23;2.60;99.90
20141;DHT22;10231;47.702;9.826;2022-12-05T02:33:01;2.60;99.90
20141;DHT22;10231;47.702;9.826;2022-12-05T02:38:35;2.70;99.90
20141;DHT22;10231;47.702;9.826;2022-12-05T02:41:31;2.60;99.90
20141;DHT22;10231;47.702;9.826;2022-12-05T02:46:39;2.60;99.90
20141;DHT22;10231;47.702;9.826;2022-12-05T02:49:09;2.60;99.90
20141;DHT22;10231;47.702;9.826;2022-12-05T02:51:42;2.60;99.90
20141;DHT22;10231;47.702;9.826;2022-12-05T02:54:13;2.70;99.90
20141;DHT22;10231;47.702;9.826;2022-12-05T02:56:43;2.70;99.90
20141;DHT22;10231;47.702;9.826;2022-12-05T02:59:09;2.70;99.90
20141;DHT22;10231;47.702;9.826;2022-12-05T03:01:35;2.70;99.90
20141;DHT22;10231;47.702;9.826;2022-12-05T03:04:02;2.70;99.90
20141;DHT22;10231;47.702;9.826;2022-12-05T03:06:35;2.70;99.90
20141;DHT22;10231;47.702;9.826;2022-12-05T03:09:08;2.70;99.90
20141;DHT22;10231;47.702;9.826;2022-12-05T03:11:41;2.70;99.90
20141;DHT22;10231;47.702;9.826;2022-12-05T03:14:13;2.70;99.90
20141;DHT22;10231;47.702;9.826;2022-12-05T03:16:45;2.70;99.90
20141;DHT22;10231;47.702;9.826;2022-12-05T03:22:07;2.70;99.90
20141;DHT22;10231;47.702;9.826;2022-12-05T03:24:37;2.70;99.90
20141;DHT22;10231;47.702;9.826;2022-12-05T03:27:21;2.70;99.90
20141;DHT22;10231;47.702;9.826;2022-12-05T03:30:03;2.70;99.90
20141;DHT22;10231;47.702;9.826;2022-12-05T03:35:22;2.70;99.90
20141;DHT22;10231;47.702;9.826;2022-12-05T03:37:54;2.70;99.90
20141;DHT22;10231;47.702;9.826;2022-12-05T03:40:38;2.70;99.90
20141;DHT22;10231;47.702;9.826;2022-12-05T03:43:14;2.70;99.90
20141;DHT22;10231;47.702;9.826;2022-12-05T03:46:09;2.80;99.90
20141;DHT22;10231;47.702;9.826;2022-12-05T03:48:50;2.80;99.90
20141;DHT22;10231;47.702;9.826;2022-12-05T03:51:18;2.80;99.90
20141;DHT22;10231;47.702;9.826;2022-12-05T03:53:52;2.80;99.90
20141;DHT22;10231;47.702;9.826;2022-12-05T03:56:24;2.90;99.90
20141;DHT22;10231;47.702;9.826;2022-12-05T03:59:22;2.90;99.90
20141;DHT22;10231;47.702;9.826;2022-12-05T04:01:45;2.90;99.90
20141;DHT22;10231;47.702;9.826;2022-12-05T04:04:24;2.80;99.90
20141;DHT22;10231;47.702;9.826;2022-12-05T04:06:53;2.90;99.90
20141;DHT22;10231;47.702;9.826;2022-12-05T04:09:27;2.90;99.90
20141;DHT22;10231;47.702;9.826;2022-12-05T04:12:01;3.00;99.90
20141;DHT22;10231;47.702;9.826;2022-12-05T04:14:41;3.00;99.90
20141;DHT22;10231;47.702;9.826;2022-12-05T04:17:20;3.00;99.90
20141;DHT22;10231;47.702;9.826;2022-12-05T04:19:52;3.00;99.90
20141;DHT22;10231;47.702;9.826;2022-12-05T04:22:38;3.00;99.90
20141;DHT22;10231;47.702;9.826;2022-12-05T04:25:08;3.00;99.90
20141;DHT22;10231;47.702;9.826;2022-12-05T04:30:49;3.00;99.90
20141;DHT22;10231;47.702;9.826;2022-12-05T04:33:37;3.00;99.90
20141;DHT22;10231;47.702;9.826;2022-12-05T04:38:47;3.00;99.90
20141;DHT22;10231;47.702;9.826;2022-12-05T04:41:28;3.00;99.90
20141;DHT22;10231;47.702;9.826;2022-12-05T04:43:54;3.00;99.90
20141;DHT22;10231;47.702;9.826;2022-12-05T04:46:23;3.00;99.90
20141;DHT22;10231;47.702;9.826;2022-12-05T04:48:51;3.00;99.90
20141;DHT22;10231;47.702;9.826;2022-12-05T04:51:22;3.00;99.90
20141;DHT22;10231;47.702;9.826;2022-12-05T04:53:53;3.10;99.90
20141;DHT22;10231;47.702;9.826;2022-12-05T04:56:19;3.10;99.90
20141;DHT22;10231;47.702;9.826;2022-12-05T04:58:46;3.10;99.90
20141;DHT22;10231;47.702;9.826;2022-12-05T05:03:51;3.00;99.90
20141;DHT22;10231;47.702;9.826;2022-12-05T05:06:18;3.00;99.90
20141;DHT22;10231;47.702;9.826;2022-12-05T05:08:49;3.00;99.90
20141;DHT22;10231;47.702;9.826;2022-12-05T05:11:21;3.20;99.90
20141;DHT22;10231;47.702;9.826;2022-12-05T05:13:47;3.00;99.90
20141;DHT22;10231;47.702;9.826;2022-12-05T05:16:22;3.00;99.90
20141;DHT22;10231;47.702;9.826;2022-12-05T05:18:49;3.00;99.90
20141;DHT22;10231;47.702;9.826;2022-12-05T05:21:36;3.00;99.90
20141;DHT22;10231;47.702;9.826;2022-12-05T05:24:02;3.00;99.90
20141;DHT22;10231;47.702;9.826;2022-12-05T05:26:29;3.10;99.90
20141;DHT22;10231;47.702;9.826;2022-12-05T05:28:57;3.10;99.90
20141;DHT22;10231;47.702;9.826;2022-12-05T05:31:23;3.10;99.90
20141;DHT22;10231;47.702;9.826;2022-12-05T05:33:53;3.10;99.90
20141;DHT22;10231;47.702;9.826;2022-12-05T05:36:20;3.10;99.90
20141;DHT22;10231;47.702;9.826;2022-12-05T05:38:49;3.10;99.90
20141;DHT22;10231;47.702;9.826;2022-12-05T05:41:29;3.00;99.90
20141;DHT22;10231;47.702;9.826;2022-12-05T05:43:55;3.10;99.90
20141;DHT22;10231;47.702;9.826;2022-12-05T05:46:23;3.10;99.90
20141;DHT22;10231;47.702;9.826;2022-12-05T05:48:50;3.10;99.90
20141;DHT22;10231;47.702;9.826;2022-12-05T05:51:17;3.10;99.90
20141;DHT22;10231;47.702;9.826;2022-12-05T05:53:43;3.10;99.90
20141;DHT22;10231;47.702;9.826;2022-12-05T05:56:15;3.10;99.90
20141;DHT22;10231;47.702;9.826;2022-12-05T05:58:41;3.10;99.90
20141;DHT22;10231;47.702;9.826;2022-12-05T06:03:34;3.10;99.90
20141;DHT22;10231;47.702;9.826;2022-12-05T06:06:01;3.10;99.90
20141;DHT22;10231;47.702;9.826;2022-12-05T06:08:32;3.10;99.90
20141;DHT22;10231;47.702;9.826;2022-12-05T06:10:59;3.10;99.90
20141;DHT22;10231;47.702;9.826;2022-12-05T06:13:24;3.20;99.90
20141;DHT22;10231;47.702;9.826;2022-12-05T06:15:50;3.20;99.90
20141;DHT22;10231;47.702;9.826;2022-12-05T06:18:16;3.10;99.90
20141;DHT22;10231;47.702;9.826;2022-12-05T06:20:41;3.10;99.90
20141;DHT22;10231;47.702;9.826;2022-12-05T06:23:07;3.10;99.90
20141;DHT22;10231;47.702;9.826;2022-12-05T06:25:32;3.10;99.90
20141;DHT22;10231;47.702;9.826;2022-12-05T06:27:58;3.10;99.90
20141;DHT22;10231;47.702;9.826;2022-12-05T06:30:24;3.20;99.90
20141;DHT22;10231;47.702;9.826;2022-12-05T06:32:49;3.20;99.90
20141;DHT22;10231;47.702;9.826;2022-12-05T06:35:15;3.20;99.90
20141;DHT22;10231;47.702;9.826;2022-12-05T06:37:44;3.30;99.90
20141;DHT22;10231;47.702;9.826;2022-12-05T06:40:11;3.30;99.90
20141;DHT22;10231;47.702;9.826;2022-12-05T06:42:37;3.30;99.90
20141;DHT22;10231;47.702;9.826;2022-12-05T06:45:04;3.30;99.90
20141;DHT22;10231;47.702;9.826;2022-12-05T06:47:30;3.20;99.90
20141;DHT22;10231;47.702;9.826;2022-12-05T06:49:56;3.20;99.90
20141;DHT22;10231;47.702;9.826;2022-12-05T06:52:21;3.20;99.90
20141;DHT22;10231;47.702;9.826;2022-12-05T06:54:47;3.20;99.90
20141;DHT22;10231;47.702;9.826;2022-12-05T06:57:13;3.20;99.90
20141;DHT22;10231;47.702;9.826;2022-12-05T06:59:39;3.20;99.90
20141;DHT22;10231;47.702;9.826;2022-12-05T07:02:05;3.20;99.90
20141;DHT22;10231;47.702;9.826;2022-12-05T07:04:33;3.20;99.90
20141;DHT22;10231;47.702;9.826;2022-12-05T07:06:59;3.20;99.90
20141;DHT22;10231;47.702;9.826;2022-12-05T07:09:27;3.30;99.90
20141;DHT22;10231;47.702;9.826;2022-12-05T07:12:14;3.20;99.90
20141;DHT22;10231;47.702;9.826;2022-12-05T07:14:40;3.20;99.90
20141;DHT22;10231;47.702;9.826;2022-12-05T07:17:06;3.20;99.90
20141;DHT22;10231;47.702;9.826;2022-12-05T07:19:32;3.20;99.90
20141;DHT22;10231;47.702;9.826;2022-12-05T07:21:57;3.20;99.90
20141;DHT22;10231;47.702;9.826;2022-12-05T07:24:23;3.30;99.90
20141;DHT22;10231;47.702;9.826;2022-12-05T07:26:48;3.30;99.90
20141;DHT22;10231;47.702;9.826;2022-12-05T07:29:14;3.30;99.90
20141;DHT22;10231;47.702;9.826;2022-12-05T07:31:39;3.30;99.90
20141;DHT22;10231;47.702;9.826;2022-12-05T07:34:05;3.40;99.90
20141;DHT22;10231;47.702;9.826;2022-12-05T07:36:31;3.40;99.90
20141;DHT22;10231;47.702;9.826;2022-12-05T07:38:57;3.40;99.90
20141;DHT22;10231;47.702;9.826;2022-12-05T07:41:25;3.40;99.90
20141;DHT22;10231;47.702;9.826;2022-12-05T07:43:52;3.40;99.90
20141;DHT22;10231;47.702;9.826;2022-12-05T07:46:18;3.40;99.90
20141;DHT22;10231;47.702;9.826;2022-12-05T07:48:44;3.50;99.90
20141;DHT22;10231;47.702;9.826;2022-12-05T07:51:10;3.50;99.90
20141;DHT22;10231;47.702;9.826;2022-12-05T07:53:37;3.60;99.90
20141;DHT22;10231;47.702;9.826;2022-12-05T07:56:04;3.60;99.90
20141;DHT22;10231;47.702;9.826;2022-12-05T07:58:31;3.60;99.90
20141;DHT22;10231;47.702;9.826;2022-12-05T08:01:08;3.60;99.90
20141;DHT22;10231;47.702;9.826;2022-12-05T08:03:34;3.60;99.90
20141;DHT22;10231;47.702;9.826;2022-12-05T08:06:08;3.60;99.90
20141;DHT22;10231;47.702;9.826;2022-12-05T08:08:34;3.60;99.90
20141;DHT22;10231;47.702;9.826;2022-12-05T08:11:11;3.60;99.90
20141;DHT22;10231;47.702;9.826;2022-12-05T08:13:38;3.70;99.90
20141;DHT22;10231;47.702;9.826;2022-12-05T08:16:06;3.80;99.90
20141;DHT22;10231;47.702;9.826;2022-12-05T08:18:32;3.80;99.90
20141;DHT22;10231;47.702;9.826;2022-12-05T08:21:05;3.80;99.90
20141;DHT22;10231;47.702;9.826;2022-12-05T08:23:32;3.80;99.90
20141;DHT22;10231;47.702;9.826;2022-12-05T08:26:02;3.70;99.90
20141;DHT22;10231;47.702;9.826;2022-12-05T08:28:28;3.80;99.90
20141;DHT22;10231;47.702;9.826;2022-12-05T08:30:54;3.90;99.90
20141;DHT22;10231;47.702;9.826;2022-12-05T08:33:20;3.80;99.90
20141;DHT22;10231;47.702;9.826;2022-12-05T08:35:45;3.80;99.90
20141;DHT22;10231;47.702;9.826;2022-12-05T08:38:11;3.80;99.90
20141;DHT22;10231;47.702;9.826;2022-12-05T08:40:36;3.90;99.90
20141;DHT22;10231;47.702;9.826;2022-12-05T08:43:02;3.90;99.90
20141;DHT22;10231;47.702;9.826;2022-12-05T08:45:27;3.90;99.90
20141;DHT22;10231;47.702;9.826;2022-12-05T08:47:53;3.90;99.90
20141;DHT22;10231;47.702;9.826;2022-12-05T08:50:18;3.80;99.90
20141;DHT22;10231;47.702;9.826;2022-12-05T08:52:44;3.80;99.90
20141;DHT22;10231;47.702;9.826;2022-12-05T08:55:09;3.70;99.90
20141;DHT22;10231;47.702;9.826;2022-12-05T08:57:35;3.70;99.90
20141;DHT22;10231;47.702;9.826;2022-12-05T09:00:01;3.80;99.90
20141;DHT22;10231;47.702;9.826;2022-12-05T09:02:26;3.70;99.90
20141;DHT22;10231;47.702;9.826;2022-12-05T09:04:52;3.70;99.90
20141;DHT22;10231;47.702;9.826;2022-12-05T09:07:17;3.60;99.90
20141;DHT22;10231;47.702;9.826;2022-12-05T09:09:43;3.60;99.90
20141;DHT22;10231;47.702;9.826;2022-12-05T09:12:09;3.60;99.90
20141;DHT22;10231;47.702;9.826;2022-12-05T09:14:34;3.60;99.90
20141;DHT22;10231;47.702;9.826;2022-12-05T09:17:00;3.50;99.90
20141;DHT22;10231;47.702;9.826;2022-12-05T09:19:26;3.50;99.90
20141;DHT22;10231;47.702;9.826;2022-12-05T09:21:53;3.40;99.90
20141;DHT22;10231;47.702;9.826;2022-12-05T09:24:19;3.40;99.90
20141;DHT22;10231;47.702;9.826;2022-12-05T09:26:45;3.30;99.90
20141;DHT22;10231;47.702;9.826;2022-12-05T09:29:11;3.30;99.90
20141;DHT22;10231;47.702;9.826;2022-12-05T09:31:38;3.30;99.90
20141;DHT22;10231;47.702;9.826;2022-12-05T09:34:03;3.30;99.90
20141;DHT22;10231;47.702;9.826;2022-12-05T09:36:30;3.30;99.90
20141;DHT22;10231;47.702;9.826;2022-12-05T09:38:59;3.30;99.90
20141;DHT22;10231;47.702;9.826;2022-12-05T09:50:03;3.40;99.90
20141;DHT22;10231;47.702;9.826;2022-12-05T09:52:39;3.40;99.90
20141;DHT22;10231;47.702;9.826;2022-12-05T09:55:15;3.40;99.90
20141;DHT22;10231;47.702;9.826;2022-12-05T09:57:56;3.40;99.90
20141;DHT22;10231;47.702;9.826;2022-12-05T10:00:22;3.30;99.90
20141;DHT22;10231;47.702;9.826;2022-12-05T10:08:31;3.20;99.90
20141;DHT22;10231;47.702;9.826;2022-12-05T10:11:12;3.20;99.90
20141;DHT22;10231;47.702;9.826;2022-12-05T10:13:47;3.30;99.90
20141;DHT22;10231;47.702;9.826;2022-12-05T10:19:03;3.20;99.90
20141;DHT22;10231;47.702;9.826;2022-12-05T10:21:58;3.20;99.90
20141;DHT22;10231;47.702;9.826;2022-12-05T10:24:32;3.30;99.90
20141;DHT22;10231;47.702;9.826;2022-12-05T10:27:09;3.30;99.90
20141;DHT22;10231;47.702;9.826;2022-12-05T10:29:41;3.40;99.90
20141;DHT22;10231;47.702;9.826;2022-12-05T10:32:26;3.30;99.90
20141;DHT22;10231;47.702;9.826;2022-12-05T10:34:54;3.30;99.90
20141;DHT22;10231;47.702;9.826;2022-12-05T10:37:24;3.30;99.90
20141;DHT22;10231;47.702;9.826;2022-12-05T10:39:50;3.40;99.90
20141;DHT22;10231;47.702;9.826;2022-12-05T10:42:23;3.40;99.90
20141;DHT22;10231;47.702;9.826;2022-12-05T10:45:01;3.40;99.90
20141;DHT22;10231;47.702;9.826;2022-12-05T10:47:28;3.40;99.90
20141;DHT22;10231;47.702;9.826;2022-12-05T10:49:56;3.50;99.90
20141;DHT22;10231;47.702;9.826;2022-12-05T10:52:24;3.50;99.90
20141;DHT22;10231;47.702;9.826;2022-12-05T10:54:56;3.50;99.90
20141;DHT22;10231;47.702;9.826;2022-12-05T10:57:26;3.50;99.90
20141;DHT22;10231;47.702;9.826;2022-12-05T10:59:52;3.60;99.90
20141;DHT22;10231;47.702;9.826;2022-12-05T11:02:25;3.60;99.90
20141;DHT22;10231;47.702;9.826;2022-12-05T11:04:52;3.50;99.90
20141;DHT22;10231;47.702;9.826;2022-12-05T11:07:35;3.40;99.90
20141;DHT22;10231;47.702;9.826;2022-12-05T11:10:29;3.50;99.90
20141;DHT22;10231;47.702;9.826;2022-12-05T11:12:58;3.40;99.90
20141;DHT22;10231;47.702;9.826;2022-12-05T11:15:27;3.30;99.90
20141;DHT22;10231;47.702;9.826;2022-12-05T11:17:54;3.30;99.90
20141;DHT22;10231;47.702;9.826;2022-12-05T11:22:51;3.40;99.90
20141;DHT22;10231;47.702;9.826;2022-12-05T11:25:35;3.40;99.90
20141;DHT22;10231;47.702;9.826;2022-12-05T11:33:29;3.50;99.90
20141;DHT22;10231;47.702;9.826;2022-12-05T11:36:06;3.50;99.90
20141;DHT22;10231;47.702;9.826;2022-12-05T11:38:36;3.60;99.90
20141;DHT22;10231;47.702;9.826;2022-12-05T11:41:43;3.60;99.90
20141;DHT22;10231;47.702;9.826;2022-12-05T11:50:08;3.70;99.90
20141;DHT22;10231;47.702;9.826;2022-12-05T11:52:51;3.70;99.90
20141;DHT22;10231;47.702;9.826;2022-12-05T11:55:23;3.70;99.90
20141;DHT22;10231;47.702;9.826;2022-12-05T12:00:47;3.80;99.90
20141;DHT22;10231;47.702;9.826;2022-12-05T12:03:23;3.80;99.90
20141;DHT22;10231;47.702;9.826;2022-12-05T12:09:08;3.90;99.90
20141;DHT22;10231;47.702;9.826;2022-12-05T12:11:57;4.00;99.90
20141;DHT22;10231;47.702;9.826;2022-12-05T12:30:21;4.00;99.90
20141;DHT22;10231;47.702;9.826;2022-12-05T12:33:08;4.00;99.90
20141;DHT22;10231;47.702;9.826;2022-12-05T12:41:24;4.00;99.90
20141;DHT22;10231;47.702;9.826;2022-12-05T12:44:03;4.00;99.90
20141;DHT22;10231;47.702;9.826;2022-12-05T12:46:42;4.00;99.90
20141;DHT22;10231;47.702;9.826;2022-12-05T12:49:20;4.00;99.90
20141;DHT22;10231;47.702;9.826;2022-12-05T12:52:00;4.00;99.90
20141;DHT22;10231;47.702;9.826;2022-12-05T12:57:06;4.00;99.90
20141;DHT22;10231;47.702;9.826;2022-12-05T13:02:38;4.00;99.90
20141;DHT22;10231;47.702;9.826;2022-12-05T13:07:51;4.10;99.90
20141;DHT22;10231;47.702;9.826;2022-12-05T13:10:30;4.20;99.90
20141;DHT22;10231;47.702;9.826;2022-12-05T13:12:59;4.20;99.90
20141;DHT22;10231;47.702;9.826;2022-12-05T13:15:40;4.20;99.90
20141;DHT22;10231;47.702;9.826;2022-12-05T13:18:15;4.20;99.90
20141;DHT22;10231;47.702;9.826;2022-12-05T13:20:41;4.20;99.90
20141;DHT22;10231;47.702;9.826;2022-12-05T13:23:10;4.10;99.90
20141;DHT22;10231;47.702;9.826;2022-12-05T13:25:38;4.20;99.90
20141;DHT22;10231;47.702;9.826;2022-12-05T13:28:08;4.20;99.90
20141;DHT22;10231;47.702;9.826;2022-12-05T13:30:47;4.20;99.90
20141;DHT22;10231;47.702;9.826;2022-12-05T13:33:24;4.30;99.90
20141;DHT22;10231;47.702;9.826;2022-12-05T13:35:55;4.30;99.90
20141;DHT22;10231;47.702;9.826;2022-12-05T13:38:41;4.30;99.90
20141;DHT22;10231;47.702;9.826;2022-12-05T13:41:39;4.30;99.90
20141;DHT22;10231;47.702;9.826;2022-12-05T13:50:41;4.30;99.90
20141;DHT22;10231;47.702;9.826;2022-12-05T13:56:10;4.40;99.90
20141;DHT22;10231;47.702;9.826;2022-12-05T13:58:53;4.40;99.90
20141;DHT22;10231;47.702;9.826;2022-12-05T14:15:28;4.40;99.90
20141;DHT22;10231;47.702;9.826;2022-12-05T14:18:05;4.50;99.90
20141;DHT22;10231;47.702;9.826;2022-12-05T14:31:27;4.30;99.90
20141;DHT22;10231;47.702;9.826;2022-12-05T14:34:15;4.30;99.90
20141;DHT22;10231;47.702;9.826;2022-12-05T14:37:01;4.40;99.90
20141;DHT22;10231;47.702;9.826;2022-12-05T14:39:45;4.40;99.90
20141;DHT22;10231;47.702;9.826;2022-12-05T14:45:15;4.20;99.90
20141;DHT22;10231;47.702;9.826;2022-12-05T14:47:49;4.20;99.90
20141;DHT22;10231;47.702;9.826;2022-12-05T14:50:46;4.10;99.90
20141;DHT22;10231;47.702;9.826;2022-12-05T14:53:25;4.10;99.90
20141;DHT22;10231;47.702;9.826;2022-12-05T14:56:14;4.00;99.90
20141;DHT22;10231;47.702;9.826;2022-12-05T14:59:04;4.00;99.90
20141;DHT22;10231;47.702;9.826;2022-12-05T15:01:44;3.90;99.90
20141;DHT22;10231;47.702;9.826;2022-12-05T15:07:47;4.00;99.90
20141;DHT22;10231;47.702;9.826;2022-12-05T15:10:09;3.90;99.90
20141;DHT22;10231;47.702;9.826;2022-12-05T15:12:47;3.90;99.90
20141;DHT22;10231;47.702;9.826;2022-12-05T15:15:23;3.90;99.90
20141;DHT22;10231;47.702;9.826;2022-12-05T15:17:58;3.90;99.90
20141;DHT22;10231;47.702;9.826;2022-12-05T15:20:53;3.80;99.90
20141;DHT22;10231;47.702;9.826;2022-12-05T15:23:56;3.80;99.90
20141;DHT22;10231;47.702;9.826;2022-12-05T15:26:34;3.80;99.90
20141;DHT22;10231;47.702;9.826;2022-12-05T15:35:02;3.80;99.90
20141;DHT22;10231;47.702;9.826;2022-12-05T15:37:34;3.80;99.90
20141;DHT22;10231;47.702;9.826;2022-12-05T15:40:11;3.80;99.90
20141;DHT22;10231;47.702;9.826;2022-12-05T15:42:42;3.80;99.90
20141;DHT22;10231;47.702;9.826;2022-12-05T15:47:38;3.80;99.90
20141;DHT22;10231;47.702;9.826;2022-12-05T15:50:04;3.80;99.90
20141;DHT22;10231;47.702;9.826;2022-12-05T15:52:35;3.70;99.90
20141;DHT22;10231;47.702;9.826;2022-12-05T15:55:07;3.70;99.90
20141;DHT22;10231;47.702;9.826;2022-12-05T15:57:42;3.70;99.90
20141;DHT22;10231;47.702;9.826;2022-12-05T16:00:18;3.80;99.90
20141;DHT22;10231;47.702;9.826;2022-12-05T16:05:35;3.70;99.90
20141;DHT22;10231;47.702;9.826;2022-12-05T16:08:04;3.70;99.90
20141;DHT22;10231;47.702;9.826;2022-12-05T16:10:31;3.80;99.90
20141;DHT22;10231;47.702;9.826;2022-12-05T16:13:11;3.70;99.90
20141;DHT22;10231;47.702;9.826;2022-12-05T16:15:41;3.70;99.90
20141;DHT22;10231;47.702;9.826;2022-12-05T16:18:25;3.70;99.90
20141;DHT22;10231;47.702;9.826;2022-12-05T16:20:52;3.70;99.90
20141;DHT22;10231;47.702;9.826;2022-12-05T16:23:29;3.60;99.90
20141;DHT22;10231;47.702;9.826;2022-12-05T16:28:39;3.60;99.90
20141;DHT22;10231;47.702;9.826;2022-12-05T16:31:05;3.70;99.90
20141;DHT22;10231;47.702;9.826;2022-12-05T16:33:31;3.60;99.90
20141;DHT22;10231;47.702;9.826;2022-12-05T16:36:10;3.60;99.90
20141;DHT22;10231;47.702;9.826;2022-12-05T16:38:37;3.50;99.90
20141;DHT22;10231;47.702;9.826;2022-12-05T16:41:05;3.50;99.90
20141;DHT22;10231;47.702;9.826;2022-12-05T16:48:33;3.30;99.90
20141;DHT22;10231;47.702;9.826;2022-12-05T16:53:44;3.30;99.90
20141;DHT22;10231;47.702;9.826;2022-12-05T16:56:17;3.30;99.90
20141;DHT22;10231;47.702;9.826;2022-12-05T16:58:44;3.30;99.90
20141;DHT22;10231;47.702;9.826;2022-12-05T17:01:24;3.20;99.90
20141;DHT22;10231;47.702;9.826;2022-12-05T17:03:52;3.20;99.90
20141;DHT22;10231;47.702;9.826;2022-12-05T17:06:18;3.20;99.90
20141;DHT22;10231;47.702;9.826;2022-12-05T17:08:46;3.20;99.90
20141;DHT22;10231;47.702;9.826;2022-12-05T17:11:23;3.20;99.90
20141;DHT22;10231;47.702;9.826;2022-12-05T17:13:50;3.10;99.90
20141;DHT22;10231;47.702;9.826;2022-12-05T17:16:17;3.10;99.90
20141;DHT22;10231;47.702;9.826;2022-12-05T17:18:43;3.10;99.90
20141;DHT22;10231;47.702;9.826;2022-12-05T17:21:16;3.00;99.90
20141;DHT22;10231;47.702;9.826;2022-12-05T17:23:43;3.10;99.90
20141;DHT22;10231;47.702;9.826;2022-12-05T17:26:12;3.10;99.90
20141;DHT22;10231;47.702;9.826;2022-12-05T17:28:38;3.10;99.90
20141;DHT22;10231;47.702;9.826;2022-12-05T17:31:04;3.00;99.90
20141;DHT22;10231;47.702;9.826;2022-12-05T17:33:30;2.90;99.90
20141;DHT22;10231;47.702;9.826;2022-12-05T17:35:55;2.90;99.90
20141;DHT22;10231;47.702;9.826;2022-12-05T17:38:21;2.80;99.90
20141;DHT22;10231;47.702;9.826;2022-12-05T17:40:46;2.80;99.90
20141;DHT22;10231;47.702;9.826;2022-12-05T17:43:13;2.80;99.90
20141;DHT22;10231;47.702;9.826;2022-12-05T17:45:40;2.90;99.90
20141;DHT22;10231;47.702;9.826;2022-12-05T17:48:12;2.90;99.90
20141;DHT22;10231;47.702;9.826;2022-12-05T17:50:42;2.90;99.90
20141;DHT22;10231;47.702;9.826;2022-12-05T17:53:17;2.90;99.90
20141;DHT22;10231;47.702;9.826;2022-12-05T17:55:43;2.90;99.90
20141;DHT22;10231;47.702;9.826;2022-12-05T17:58:09;2.80;99.90
20141;DHT22;10231;47.702;9.826;2022-12-05T18:00:35;2.80;99.90
20141;DHT22;10231;47.702;9.826;2022-12-05T18:03:01;2.80;99.90
20141;DHT22;10231;47.702;9.826;2022-12-05T18:05:26;2.90;99.90
20141;DHT22;10231;47.702;9.826;2022-12-05T18:07:52;2.80;99.90
20141;DHT22;10231;47.702;9.826;2022-12-05T18:10:19;2.90;99.90
20141;DHT22;10231;47.702;9.826;2022-12-05T18:12:47;2.90;99.90
20141;DHT22;10231;47.702;9.826;2022-12-05T18:15:13;2.90;99.90
20141;DHT22;10231;47.702;9.826;2022-12-05T18:17:39;2.90;99.90
20141;DHT22;10231;47.702;9.826;2022-12-05T18:20:09;3.00;99.90
20141;DHT22;10231;47.702;9.826;2022-12-05T18:22:35;3.00;99.90
20141;DHT22;10231;47.702;9.826;2022-12-05T18:25:02;2.90;99.90
20141;DHT22;10231;47.702;9.826;2022-12-05T18:27:28;2.80;99.90
20141;DHT22;10231;47.702;9.826;2022-12-05T18:29:54;2.80;99.90
20141;DHT22;10231;47.702;9.826;2022-12-05T18:32:20;2.80;99.90
20141;DHT22;10231;47.702;9.826;2022-12-05T18:34:47;2.80;99.90
20141;DHT22;10231;47.702;9.826;2022-12-05T18:37:13;2.70;99.90
20141;DHT22;10231;47.702;9.826;2022-12-05T18:39:40;2.70;99.90
20141;DHT22;10231;47.702;9.826;2022-12-05T18:42:06;2.80;99.90
20141;DHT22;10231;47.702;9.826;2022-12-05T18:44:32;2.70;99.90
20141;DHT22;10231;47.702;9.826;2022-12-05T18:46:57;2.70;99.90
20141;DHT22;10231;47.702;9.826;2022-12-05T18:49:23;2.80;99.90
20141;DHT22;10231;47.702;9.826;2022-12-05T18:51:49;2.90;99.90
20141;DHT22;10231;47.702;9.826;2022-12-05T18:54:15;2.80;99.90
20141;DHT22;10231;47.702;9.826;2022-12-05T18:56:41;2.70;99.90
20141;DHT22;10231;47.702;9.826;2022-12-05T18:59:16;2.70;99.90